sensor_id;sensor_type;location;lat;lon;timestamp;temperature;humidity
43225;DHT22;28834;48.720;9.208;2022-09-17T00:00:19;9.80;99.90
43225;DHT22;28834;48.720;9.208;2022-09-17T00:02:44;9.80;99.90
43225;DHT22;28834;48.720;9.208;2022-09-17T00:05:13;9.80;99.90
43225;DHT22;28834;48.720;9.208;2022-09-17T00:07:39;9.90;99.90
43225;DHT22;28834;48.720;9.208;2022-09-17T00:10:05;9.90;99.90
43225;DHT22;28834;48.720;9.208;2022-09-17T00:12:31;9.90;99.90
43225;DHT22;28834;48.720;9.208;2022-09-17T00:14:56;10.00;99.90
43225;DHT22;28834;48.720;9.208;2022-09-17T00:17:22;9.90;99.90
43225;DHT22;28834;48.720;9.208;2022-09-17T00:19:47;9.90;99.90
43225;DHT22;28834;48.720;9.208;2022-09-17T00:22:14;9.90;99.90
43225;DHT22;28834;48.720;9.208;2022-09-17T00:24:40;9.90;99.90
43225;DHT22;28834;48.720;9.208;2022-09-17T00:27:06;9.90;99.90
43225;DHT22;28834;48.720;9.208;2022-09-17T00:29:31;9.90;99.90
43225;DHT22;28834;48.720;9.208;2022-09-17T00:31:57;9.80;99.90
43225;DHT22;28834;48.720;9.208;2022-09-17T00:34:22;9.80;99.90
43225;DHT22;28834;48.720;9.208;2022-09-17T00:36:48;9.80;99.90
43225;DHT22;28834;48.720;9.208;2022-09-17T00:39:13;9.70;99.90
43225;DHT22;28834;48.720;9.208;2022-09-17T00:41:41;9.70;99.90
43225;DHT22;28834;48.720;9.208;2022-09-17T00:47:04;9.70;99.90
43225;DHT22;28834;48.720;9.208;2022-09-17T00:49:29;9.70;99.90
43225;DHT22;28834;48.720;9.208;2022-09-17T00:52:00;9.70;99.90
43225;DHT22;28834;48.720;9.208;2022-09-17T00:54:27;9.70;99.90
43225;DHT22;28834;48.720;9.208;2022-09-17T00:56:53;9.70;99.90
43225;DHT22;28834;48.720;9.208;2022-09-17T00:59:21;9.70;99.90
43225;DHT22;28834;48.720;9.208;2022-09-17T01:01:47;9.70;99.90
43225;DHT22;28834;48.720;9.208;2022-09-17T01:04:18;9.70;99.90
43225;DHT22;28834;48.720;9.208;2022-09-17T01:06:52;9.70;99.90
43225;DHT22;28834;48.720;9.208;2022-09-17T01:12:58;9.80;99.90
43225;DHT22;28834;48.720;9.208;2022-09-17T01:18:21;9.70;99.90
43225;DHT22;28834;48.720;9.208;2022-09-17T01:29:26;9.70;99.90
43225;DHT22;28834;48.720;9.208;2022-09-17T01:43:09;9.60;99.90
43225;DHT22;28834;48.720;9.208;2022-09-17T01:45:39;9.50;99.90
43225;DHT22;28834;48.720;9.208;2022-09-17T01:48:16;9.60;99.90
43225;DHT22;28834;48.720;9.208;2022-09-17T01:51:03;9.50;99.90
43225;DHT22;28834;48.720;9.208;2022-09-17T01:53:36;9.50;99.90
43225;DHT22;28834;48.720;9.208;2022-09-17T01:56:04;9.50;99.90
43225;DHT22;28834;48.720;9.208;2022-09-17T01:58:37;9.50;99.90
43225;DHT22;28834;48.720;9.208;2022-09-17T02:01:07;9.50;99.90
43225;DHT22;28834;48.720;9.208;2022-09-17T02:03:56;9.50;99.90
43225;DHT22;28834;48.720;9.208;2022-09-17T02:06:29;9.60;99.90
43225;DHT22;28834;48.720;9.208;2022-09-17T02:09:00;9.50;99.90
43225;DHT22;28834;48.720;9.208;2022-09-17T02:11:31;9.50;99.90
43225;DHT22;28834;48.720;9.208;2022-09-17T02:14:29;9.50;99.90
43225;DHT22;28834;48.720;9.208;2022-09-17T02:17:06;9.50;99.90
43225;DHT22;28834;48.720;9.208;2022-09-17T02:19:35;9.50;99.90
43225;DHT22;28834;48.720;9.208;2022-09-17T02:22:27;9.50;99.90
43225;DHT22;28834;48.720;9.208;2022-09-17T02:30:16;9.50;99.90
43225;DHT22;28834;48.720;9.208;2022-09-17T02:32:42;9.50;99.90
43225;DHT22;28834;48.720;9.208;2022-09-17T02:35:09;9.50;99.90
43225;DHT22;28834;48.720;9.208;2022-09-17T02:37:36;9.50;99.90
43225;DHT22;28834;48.720;9.208;2022-09-17T02:40:02;9.50;99.90
43225;DHT22;28834;48.720;9.208;2022-09-17T02:56:39;9.40;99.90
43225;DHT22;28834;48.720;9.208;2022-09-17T02:59:24;9.50;99.90
43225;DHT22;28834;48.720;9.208;2022-09-17T03:02:05;9.50;99.90
43225;DHT22;28834;48.720;9.208;2022-09-17T03:04:32;9.50;99.90
43225;DHT22;28834;48.720;9.208;2022-09-17T03:06:59;9.40;99.90
43225;DHT22;28834;48.720;9.208;2022-09-17T03:09:29;9.40;99.90
43225;DHT22;28834;48.720;9.208;2022-09-17T03:11:55;9.40;99.90
43225;DHT22;28834;48.720;9.208;2022-09-17T03:14:21;9.40;99.90
43225;DHT22;28834;48.720;9.208;2022-09-17T03:16:46;9.30;99.90
43225;DHT22;28834;48.720;9.208;2022-09-17T03:19:12;9.30;99.90
43225;DHT22;28834;48.720;9.208;2022-09-17T03:21:37;9.30;99.90
43225;DHT22;28834;48.720;9.208;2022-09-17T03:24:03;9.20;99.90
43225;DHT22;28834;48.720;9.208;2022-09-17T03:26:29;9.20;99.90
43225;DHT22;28834;48.720;9.208;2022-09-17T03:28:54;9.10;99.90
43225;DHT22;28834;48.720;9.208;2022-09-17T03:31:20;9.10;99.90
43225;DHT22;28834;48.720;9.208;2022-09-17T03:33:46;9.10;99.90
43225;DHT22;28834;48.720;9.208;2022-09-17T03:36:11;9.00;99.90
43225;DHT22;28834;48.720;9.208;2022-09-17T03:38:37;9.10;99.90
43225;DHT22;28834;48.720;9.208;2022-09-17T03:41:05;9.00;99.90
43225;DHT22;28834;48.720;9.208;2022-09-17T03:43:34;9.00;99.90
43225;DHT22;28834;48.720;9.208;2022-09-17T03:45:59;9.10;99.90
43225;DHT22;28834;48.720;9.208;2022-09-17T03:48:25;9.10;99.90
43225;DHT22;28834;48.720;9.208;2022-09-17T03:50:51;9.10;99.90
43225;DHT22;28834;48.720;9.208;2022-09-17T03:53:17;9.10;99.90
43225;DHT22;28834;48.720;9.208;2022-09-17T03:55:42;9.10;99.90
43225;DHT22;28834;48.720;9.208;2022-09-17T03:58:08;9.10;99.90
43225;DHT22;28834;48.720;9.208;2022-09-17T04:00:34;9.10;99.90
43225;DHT22;28834;48.720;9.208;2022-09-17T04:03:02;9.10;99.90
43225;DHT22;28834;48.720;9.208;2022-09-17T04:05:27;9.10;99.90
43225;DHT22;28834;48.720;9.208;2022-09-17T04:07:53;9.10;99.90
43225;DHT22;28834;48.720;9.208;2022-09-17T04:10:19;9.00;99.90
43225;DHT22;28834;48.720;9.208;2022-09-17T04:12:44;9.00;99.90
43225;DHT22;28834;48.720;9.208;2022-09-17T04:15:10;9.00;99.90
43225;DHT22;28834;48.720;9.208;2022-09-17T04:17:35;9.00;99.90
43225;DHT22;28834;48.720;9.208;2022-09-17T04:20:02;8.90;99.90
43225;DHT22;28834;48.720;9.208;2022-09-17T04:22:27;9.00;99.90
43225;DHT22;28834;48.720;9.208;2022-09-17T04:24:53;9.00;99.90
43225;DHT22;28834;48.720;9.208;2022-09-17T04:27:19;9.00;99.90
43225;DHT22;28834;48.720;9.208;2022-09-17T04:29:44;9.00;99.90
43225;DHT22;28834;48.720;9.208;2022-09-17T04:32:10;8.90;99.90
43225;DHT22;28834;48.720;9.208;2022-09-17T04:34:35;8.90;99.90
43225;DHT22;28834;48.720;9.208;2022-09-17T04:37:01;8.90;99.90
43225;DHT22;28834;48.720;9.208;2022-09-17T04:39:26;8.90;99.90
43225;DHT22;28834;48.720;9.208;2022-09-17T04:41:52;8.90;99.90
43225;DHT22;28834;48.720;9.208;2022-09-17T04:44:17;8.90;99.90
43225;DHT22;28834;48.720;9.208;2022-09-17T04:46:43;8.90;99.90
43225;DHT22;28834;48.720;9.208;2022-09-17T04:49:09;8.90;99.90
43225;DHT22;28834;48.720;9.208;2022-09-17T04:51:35;9.00;99.90
43225;DHT22;28834;48.720;9.208;2022-09-17T04:54:01;9.00;99.90
43225;DHT22;28834;48.720;9.208;2022-09-17T04:56:26;9.00;99.90
43225;DHT22;28834;48.720;9.208;2022-09-17T04:58:52;9.00;99.90
43225;DHT22;28834;48.720;9.208;2022-09-17T05:01:17;9.00;99.90
43225;DHT22;28834;48.720;9.208;2022-09-17T05:03:44;9.00;99.90
43225;DHT22;28834;48.720;9.208;2022-09-17T05:06:09;9.10;99.90
43225;DHT22;28834;48.720;9.208;2022-09-17T05:08:35;9.10;99.90
43225;DHT22;28834;48.720;9.208;2022-09-17T05:11:01;9.10;99.90
43225;DHT22;28834;48.720;9.208;2022-09-17T05:13:26;9.10;99.90
43225;DHT22;28834;48.720;9.208;2022-09-17T05:15:53;9.10;99.90
43225;DHT22;28834;48.720;9.208;2022-09-17T05:18:21;9.10;99.90
43225;DHT22;28834;48.720;9.208;2022-09-17T05:20:47;9.10;99.90
43225;DHT22;28834;48.720;9.208;2022-09-17T05:23:12;9.10;99.90
43225;DHT22;28834;48.720;9.208;2022-09-17T05:25:38;9.20;99.90
43225;DHT22;28834;48.720;9.208;2022-09-17T05:28:04;9.20;99.90
43225;DHT22;28834;48.720;9.208;2022-09-17T05:30:29;9.20;99.90
43225;DHT22;28834;48.720;9.208;2022-09-17T05:33:03;9.10;99.90
43225;DHT22;28834;48.720;9.208;2022-09-17T05:35:30;9.10;99.90
43225;DHT22;28834;48.720;9.208;2022-09-17T05:38:00;9.00;99.90
43225;DHT22;28834;48.720;9.208;2022-09-17T05:40:26;9.00;99.90
43225;DHT22;28834;48.720;9.208;2022-09-17T05:42:56;9.00;99.90
43225;DHT22;28834;48.720;9.208;2022-09-17T05:45:22;9.00;99.90
43225;DHT22;28834;48.720;9.208;2022-09-17T05:47:47;9.00;99.90
43225;DHT22;28834;48.720;9.208;2022-09-17T05:50:13;9.00;99.90
43225;DHT22;28834;48.720;9.208;2022-09-17T05:52:38;9.00;99.90
43225;DHT22;28834;48.720;9.208;2022-09-17T05:55:04;9.10;99.90
43225;DHT22;28834;48.720;9.208;2022-09-17T05:57:29;9.10;99.90
43225;DHT22;28834;48.720;9.208;2022-09-17T05:59:55;9.10;99.90
43225;DHT22;28834;48.720;9.208;2022-09-17T06:02:21;9.10;99.90
43225;DHT22;28834;48.720;9.208;2022-09-17T06:04:46;9.10;99.90
43225;DHT22;28834;48.720;9.208;2022-09-17T06:07:11;9.20;99.90
43225;DHT22;28834;48.720;9.208;2022-09-17T06:09:37;9.30;99.90
43225;DHT22;28834;48.720;9.208;2022-09-17T06:12:05;9.30;99.90
43225;DHT22;28834;48.720;9.208;2022-09-17T06:14:30;9.40;99.90
43225;DHT22;28834;48.720;9.208;2022-09-17T06:16:56;9.50;99.90
43225;DHT22;28834;48.720;9.208;2022-09-17T06:19:21;9.60;99.90
43225;DHT22;28834;48.720;9.208;2022-09-17T06:21:47;9.70;99.90
43225;DHT22;28834;48.720;9.208;2022-09-17T06:24:15;9.70;99.90
43225;DHT22;28834;48.720;9.208;2022-09-17T06:26:40;9.80;99.90
43225;DHT22;28834;48.720;9.208;2022-09-17T06:29:06;9.80;99.90
43225;DHT22;28834;48.720;9.208;2022-09-17T06:31:31;9.80;99.90
43225;DHT22;28834;48.720;9.208;2022-09-17T06:33:57;9.80;99.90
43225;DHT22;28834;48.720;9.208;2022-09-17T06:36:23;9.80;99.90
43225;DHT22;28834;48.720;9.208;2022-09-17T06:38:48;9.80;99.90
43225;DHT22;28834;48.720;9.208;2022-09-17T06:41:14;9.90;99.90
43225;DHT22;28834;48.720;9.208;2022-09-17T06:43:41;9.90;99.90
43225;DHT22;28834;48.720;9.208;2022-09-17T06:46:08;9.90;99.90
43225;DHT22;28834;48.720;9.208;2022-09-17T06:48:35;10.00;99.90
43225;DHT22;28834;48.720;9.208;2022-09-17T06:51:03;9.90;99.90
43225;DHT22;28834;48.720;9.208;2022-09-17T06:53:29;9.90;99.90
43225;DHT22;28834;48.720;9.208;2022-09-17T06:55:56;9.90;99.90
43225;DHT22;28834;48.720;9.208;2022-09-17T06:58:23;9.90;99.90
43225;DHT22;28834;48.720;9.208;2022-09-17T07:00:48;9.90;99.90
43225;DHT22;28834;48.720;9.208;2022-09-17T07:03:14;9.90;99.90
43225;DHT22;28834;48.720;9.208;2022-09-17T07:05:43;9.90;99.90
43225;DHT22;28834;48.720;9.208;2022-09-17T07:08:09;10.00;99.90
43225;DHT22;28834;48.720;9.208;2022-09-17T07:10:35;9.90;99.90
43225;DHT22;28834;48.720;9.208;2022-09-17T07:13:01;10.00;99.90
43225;DHT22;28834;48.720;9.208;2022-09-17T07:15:26;10.00;99.90
43225;DHT22;28834;48.720;9.208;2022-09-17T07:17:52;10.00;99.90
43225;DHT22;28834;48.720;9.208;2022-09-17T07:20:18;9.90;99.90
43225;DHT22;28834;48.720;9.208;2022-09-17T07:22:43;9.80;99.90
43225;DHT22;28834;48.720;9.208;2022-09-17T07:25:09;9.80;99.90
43225;DHT22;28834;48.720;9.208;2022-09-17T07:27:35;9.70;99.90
43225;DHT22;28834;48.720;9.208;2022-09-17T07:30:01;9.70;99.90
43225;DHT22;28834;48.720;9.208;2022-09-17T07:32:28;9.70;99.90
43225;DHT22;28834;48.720;9.208;2022-09-17T07:34:55;9.60;99.90
43225;DHT22;28834;48.720;9.208;2022-09-17T07:37:20;9.50;99.90
43225;DHT22;28834;48.720;9.208;2022-09-17T07:39:46;9.40;99.90
43225;DHT22;28834;48.720;9.208;2022-09-17T07:42:11;9.40;99.90
43225;DHT22;28834;48.720;9.208;2022-09-17T07:44:37;9.40;99.90
43225;DHT22;28834;48.720;9.208;2022-09-17T07:47:03;9.40;99.90
43225;DHT22;28834;48.720;9.208;2022-09-17T07:49:28;9.40;99.90
43225;DHT22;28834;48.720;9.208;2022-09-17T07:51:55;9.40;99.90
43225;DHT22;28834;48.720;9.208;2022-09-17T07:54:21;9.50;99.90
43225;DHT22;28834;48.720;9.208;2022-09-17T07:56:47;9.40;99.90
43225;DHT22;28834;48.720;9.208;2022-09-17T07:59:13;9.40;99.90
43225;DHT22;28834;48.720;9.208;2022-09-17T08:01:38;9.30;99.90
43225;DHT22;28834;48.720;9.208;2022-09-17T08:04:04;9.20;99.90
43225;DHT22;28834;48.720;9.208;2022-09-17T08:06:30;9.10;99.90
43225;DHT22;28834;48.720;9.208;2022-09-17T08:08:57;9.20;99.90
43225;DHT22;28834;48.720;9.208;2022-09-17T08:11:26;9.10;99.90
43225;DHT22;28834;48.720;9.208;2022-09-17T08:13:52;9.10;99.90
43225;DHT22;28834;48.720;9.208;2022-09-17T08:16:19;9.20;99.90
43225;DHT22;28834;48.720;9.208;2022-09-17T08:18:46;9.20;99.90
43225;DHT22;28834;48.720;9.208;2022-09-17T08:21:16;9.20;99.90
43225;DHT22;28834;48.720;9.208;2022-09-17T08:23:43;9.30;99.90
43225;DHT22;28834;48.720;9.208;2022-09-17T08:26:13;9.30;99.90
43225;DHT22;28834;48.720;9.208;2022-09-17T08:28:39;9.30;99.90
43225;DHT22;28834;48.720;9.208;2022-09-17T08:31:07;9.40;99.90
43225;DHT22;28834;48.720;9.208;2022-09-17T08:33:34;9.40;99.90
43225;DHT22;28834;48.720;9.208;2022-09-17T08:36:01;9.50;99.90
43225;DHT22;28834;48.720;9.208;2022-09-17T08:38:27;9.50;99.90
43225;DHT22;28834;48.720;9.208;2022-09-17T08:46:47;9.60;99.90
43225;DHT22;28834;48.720;9.208;2022-09-17T08:55:27;10.20;99.90
43225;DHT22;28834;48.720;9.208;2022-09-17T09:00:50;10.40;99.90
43225;DHT22;28834;48.720;9.208;2022-09-17T09:05:59;10.60;99.90
43225;DHT22;28834;48.720;9.208;2022-09-17T09:08:49;10.70;99.90
43225;DHT22;28834;48.720;9.208;2022-09-17T09:11:20;10.90;99.90
43225;DHT22;28834;48.720;9.208;2022-09-17T09:13:50;11.00;99.90
43225;DHT22;28834;48.720;9.208;2022-09-17T09:16:20;11.10;99.90
43225;DHT22;28834;48.720;9.208;2022-09-17T09:18:51;11.10;99.90
43225;DHT22;28834;48.720;9.208;2022-09-17T09:21:25;11.30;99.90
43225;DHT22;28834;48.720;9.208;2022-09-17T09:24:00;11.40;99.90
43225;DHT22;28834;48.720;9.208;2022-09-17T09:26:52;11.60;99.90
43225;DHT22;28834;48.720;9.208;2022-09-17T09:34:37;11.60;99.90
43225;DHT22;28834;48.720;9.208;2022-09-17T09:37:27;11.50;99.90
43225;DHT22;28834;48.720;9.208;2022-09-17T09:40:02;11.50;99.90
43225;DHT22;28834;48.720;9.208;2022-09-17T09:42:37;11.40;99.90
43225;DHT22;28834;48.720;9.208;2022-09-17T09:45:16;11.40;99.90
43225;DHT22;28834;48.720;9.208;2022-09-17T09:47:59;11.60;99.90
43225;DHT22;28834;48.720;9.208;2022-09-17T09:53:15;11.70;99.90
43225;DHT22;28834;48.720;9.208;2022-09-17T09:56:14;11.70;99.90
43225;DHT22;28834;48.720;9.208;2022-09-17T09:58:48;11.70;99.90
43225;DHT22;28834;48.720;9.208;2022-09-17T10:01:16;11.80;99.90
43225;DHT22;28834;48.720;9.208;2022-09-17T10:03:45;11.80;99.90
43225;DHT22;28834;48.720;9.208;2022-09-17T10:06:12;11.80;99.90
43225;DHT22;28834;48.720;9.208;2022-09-17T10:11:23;11.60;99.90
43225;DHT22;28834;48.720;9.208;2022-09-17T10:13:49;11.40;99.90
43225;DHT22;28834;48.720;9.208;2022-09-17T10:18:42;11.40;99.90
43225;DHT22;28834;48.720;9.208;2022-09-17T10:21:19;11.40;99.90
43225;DHT22;28834;48.720;9.208;2022-09-17T10:23:45;11.60;99.90
43225;DHT22;28834;48.720;9.208;2022-09-17T10:26:23;11.80;99.90
43225;DHT22;28834;48.720;9.208;2022-09-17T10:28:52;12.00;99.90
43225;DHT22;28834;48.720;9.208;2022-09-17T10:31:18;12.10;99.90
43225;DHT22;28834;48.720;9.208;2022-09-17T10:33:58;12.40;99.90
43225;DHT22;28834;48.720;9.208;2022-09-17T10:39:19;12.70;99.90
43225;DHT22;28834;48.720;9.208;2022-09-17T10:44:23;12.80;99.90
43225;DHT22;28834;48.720;9.208;2022-09-17T10:46:49;13.00;99.90
43225;DHT22;28834;48.720;9.208;2022-09-17T10:51:41;13.10;99.90
43225;DHT22;28834;48.720;9.208;2022-09-17T10:57:01;13.50;99.90
43225;DHT22;28834;48.720;9.208;2022-09-17T10:59:48;13.80;99.90
43225;DHT22;28834;48.720;9.208;2022-09-17T11:07:41;13.70;99.90
43225;DHT22;28834;48.720;9.208;2022-09-17T11:13:02;13.20;99.90
43225;DHT22;28834;48.720;9.208;2022-09-17T11:15:40;13.30;99.90
43225;DHT22;28834;48.720;9.208;2022-09-17T11:18:41;13.30;99.90
43225;DHT22;28834;48.720;9.208;2022-09-17T11:27:07;13.60;99.90
43225;DHT22;28834;48.720;9.208;2022-09-17T11:29:57;13.80;99.90
43225;DHT22;28834;48.720;9.208;2022-09-17T11:32:52;13.90;99.90
43225;DHT22;28834;48.720;9.208;2022-09-17T11:35:40;14.00;99.90
43225;DHT22;28834;48.720;9.208;2022-09-17T11:41:03;13.80;99.90
43225;DHT22;28834;48.720;9.208;2022-09-17T11:43:42;14.00;99.90
43225;DHT22;28834;48.720;9.208;2022-09-17T11:46:17;14.10;99.90
43225;DHT22;28834;48.720;9.208;2022-09-17T11:48:54;14.30;99.90
43225;DHT22;28834;48.720;9.208;2022-09-17T12:01:51;13.60;99.90
43225;DHT22;28834;48.720;9.208;2022-09-17T12:07:34;13.50;99.90
43225;DHT22;28834;48.720;9.208;2022-09-17T12:12:51;13.60;99.90
43225;DHT22;28834;48.720;9.208;2022-09-17T12:15:26;13.80;99.90
43225;DHT22;28834;48.720;9.208;2022-09-17T12:18:35;14.00;99.80
43225;DHT22;28834;48.720;9.208;2022-09-17T12:20:44;14.00;99.90
43225;DHT22;28834;48.720;9.208;2022-09-17T12:23:16;13.90;99.90
43225;DHT22;28834;48.720;9.208;2022-09-17T12:25:59;13.70;99.90
43225;DHT22;28834;48.720;9.208;2022-09-17T12:28:42;13.60;99.90
43225;DHT22;28834;48.720;9.208;2022-09-17T12:31:27;13.40;99.90
43225;DHT22;28834;48.720;9.208;2022-09-17T12:37:04;13.10;99.90
43225;DHT22;28834;48.720;9.208;2022-09-17T12:39:51;12.90;99.90
43225;DHT22;28834;48.720;9.208;2022-09-17T12:50:46;12.80;99.90
43225;DHT22;28834;48.720;9.208;2022-09-17T12:53:34;12.90;99.90
43225;DHT22;28834;48.720;9.208;2022-09-17T13:07:34;11.70;99.90
43225;DHT22;28834;48.720;9.208;2022-09-17T13:18:50;10.90;99.90
43225;DHT22;28834;48.720;9.208;2022-09-17T13:21:23;10.70;99.90
43225;DHT22;28834;48.720;9.208;2022-09-17T13:23:54;10.50;99.90
43225;DHT22;28834;48.720;9.208;2022-09-17T13:26:33;10.40;99.90
43225;DHT22;28834;48.720;9.208;2022-09-17T13:28:59;10.20;99.90
43225;DHT22;28834;48.720;9.208;2022-09-17T13:31:45;10.10;99.90
43225;DHT22;28834;48.720;9.208;2022-09-17T13:36:51;10.20;99.90
43225;DHT22;28834;48.720;9.208;2022-09-17T13:39:45;10.20;99.90
43225;DHT22;28834;48.720;9.208;2022-09-17T13:42:25;10.30;99.90
43225;DHT22;28834;48.720;9.208;2022-09-17T13:45:15;10.40;99.90
43225;DHT22;28834;48.720;9.208;2022-09-17T13:50:42;10.70;99.90
43225;DHT22;28834;48.720;9.208;2022-09-17T13:55:53;11.20;99.90
43225;DHT22;28834;48.720;9.208;2022-09-17T14:01:02;11.50;99.90
43225;DHT22;28834;48.720;9.208;2022-09-17T14:13:54;12.30;99.90
43225;DHT22;28834;48.720;9.208;2022-09-17T14:16:46;12.60;99.90
43225;DHT22;28834;48.720;9.208;2022-09-17T14:21:41;13.00;99.90
43225;DHT22;28834;48.720;9.208;2022-09-17T14:43:55;12.60;99.90
43225;DHT22;28834;48.720;9.208;2022-09-17T14:46:41;12.90;99.90
43225;DHT22;28834;48.720;9.208;2022-09-17T14:49:36;13.10;99.90
43225;DHT22;28834;48.720;9.208;2022-09-17T14:52:23;13.20;99.90
43225;DHT22;28834;48.720;9.208;2022-09-17T14:57:44;12.80;99.90
43225;DHT22;28834;48.720;9.208;2022-09-17T15:00:21;12.80;99.90
43225;DHT22;28834;48.720;9.208;2022-09-17T15:02:55;12.80;99.90
43225;DHT22;28834;48.720;9.208;2022-09-17T15:05:36;12.70;99.90
43225;DHT22;28834;48.720;9.208;2022-09-17T15:08:13;12.60;99.90
43225;DHT22;28834;48.720;9.208;2022-09-17T15:10:58;12.50;99.90
43225;DHT22;28834;48.720;9.208;2022-09-17T15:13:34;12.50;99.90
43225;DHT22;28834;48.720;9.208;2022-09-17T15:16:15;12.40;99.90
43225;DHT22;28834;48.720;9.208;2022-09-17T15:18:47;12.40;99.90
43225;DHT22;28834;48.720;9.208;2022-09-17T15:21:32;12.30;99.90
43225;DHT22;28834;48.720;9.208;2022-09-17T15:24:31;12.30;99.90
43225;DHT22;28834;48.720;9.208;2022-09-17T15:27:05;12.20;99.90
43225;DHT22;28834;48.720;9.208;2022-09-17T15:29:34;12.20;99.90
43225;DHT22;28834;48.720;9.208;2022-09-17T15:32:03;12.20;99.90
43225;DHT22;28834;48.720;9.208;2022-09-17T15:34:30;12.10;99.90
43225;DHT22;28834;48.720;9.208;2022-09-17T15:37:18;12.10;99.90
43225;DHT22;28834;48.720;9.208;2022-09-17T15:39:49;12.10;99.90
43225;DHT22;28834;48.720;9.208;2022-09-17T15:42:48;12.10;99.90
43225;DHT22;28834;48.720;9.208;2022-09-17T15:45:27;12.10;99.90
43225;DHT22;28834;48.720;9.208;2022-09-17T15:47:57;12.00;99.90
43225;DHT22;28834;48.720;9.208;2022-09-17T15:50:31;12.10;99.90
43225;DHT22;28834;48.720;9.208;2022-09-17T15:53:21;12.10;99.90
43225;DHT22;28834;48.720;9.208;2022-09-17T16:08:56;12.20;99.90
43225;DHT22;28834;48.720;9.208;2022-09-17T16:11:28;12.20;99.90
43225;DHT22;28834;48.720;9.208;2022-09-17T16:13:56;12.10;99.90
43225;DHT22;28834;48.720;9.208;2022-09-17T16:18:51;11.90;99.90
43225;DHT22;28834;48.720;9.208;2022-09-17T16:21:18;11.90;99.90
43225;DHT22;28834;48.720;9.208;2022-09-17T16:23:44;11.90;99.90
43225;DHT22;28834;48.720;9.208;2022-09-17T16:26:17;11.80;99.90
43225;DHT22;28834;48.720;9.208;2022-09-17T16:28:45;11.80;99.90
43225;DHT22;28834;48.720;9.208;2022-09-17T16:31:12;11.80;99.90
43225;DHT22;28834;48.720;9.208;2022-09-17T16:33:38;11.80;99.90
43225;DHT22;28834;48.720;9.208;2022-09-17T16:36:04;11.90;99.90
43225;DHT22;28834;48.720;9.208;2022-09-17T16:38:29;11.90;99.90
43225;DHT22;28834;48.720;9.208;2022-09-17T16:40:55;11.90;99.90
43225;DHT22;28834;48.720;9.208;2022-09-17T16:43:21;11.90;99.90
43225;DHT22;28834;48.720;9.208;2022-09-17T16:46:00;11.90;99.90
43225;DHT22;28834;48.720;9.208;2022-09-17T16:48:25;11.90;99.90
43225;DHT22;28834;48.720;9.208;2022-09-17T16:50:51;11.90;99.90
43225;DHT22;28834;48.720;9.208;2022-09-17T16:53:16;11.80;99.90
43225;DHT22;28834;48.720;9.208;2022-09-17T16:55:42;11.90;99.90
43225;DHT22;28834;48.720;9.208;2022-09-17T16:58:08;11.80;99.90
43225;DHT22;28834;48.720;9.208;2022-09-17T17:00:33;11.80;99.90
43225;DHT22;28834;48.720;9.208;2022-09-17T17:03:00;11.80;99.90
43225;DHT22;28834;48.720;9.208;2022-09-17T17:05:26;11.70;99.90
43225;DHT22;28834;48.720;9.208;2022-09-17T17:07:52;11.60;99.90
43225;DHT22;28834;48.720;9.208;2022-09-17T17:10:20;11.60;99.90
43225;DHT22;28834;48.720;9.208;2022-09-17T17:12:46;11.60;99.90
43225;DHT22;28834;48.720;9.208;2022-09-17T17:15:11;11.60;99.90
43225;DHT22;28834;48.720;9.208;2022-09-17T17:17:37;11.50;99.90
43225;DHT22;28834;48.720;9.208;2022-09-17T17:20:05;11.60;99.90
43225;DHT22;28834;48.720;9.208;2022-09-17T17:22:34;11.50;99.90
43225;DHT22;28834;48.720;9.208;2022-09-17T17:25:01;11.40;99.90
43225;DHT22;28834;48.720;9.208;2022-09-17T17:27:27;11.30;99.90
43225;DHT22;28834;48.720;9.208;2022-09-17T17:29:53;11.30;99.90
43225;DHT22;28834;48.720;9.208;2022-09-17T17:32:19;11.20;99.90
43225;DHT22;28834;48.720;9.208;2022-09-17T17:34:44;11.10;99.90
43225;DHT22;28834;48.720;9.208;2022-09-17T17:37:10;11.00;99.90
43225;DHT22;28834;48.720;9.208;2022-09-17T17:39:38;11.00;99.90
43225;DHT22;28834;48.720;9.208;2022-09-17T17:42:04;10.90;99.90
43225;DHT22;28834;48.720;9.208;2022-09-17T17:44:30;10.90;99.90
43225;DHT22;28834;48.720;9.208;2022-09-17T17:46:55;10.80;99.90
43225;DHT22;28834;48.720;9.208;2022-09-17T17:49:21;10.80;99.90
43225;DHT22;28834;48.720;9.208;2022-09-17T17:51:47;10.80;99.90
43225;DHT22;28834;48.720;9.208;2022-09-17T17:54:12;10.70;99.90
43225;DHT22;28834;48.720;9.208;2022-09-17T17:56:38;10.70;99.90
43225;DHT22;28834;48.720;9.208;2022-09-17T17:59:04;10.70;99.90
43225;DHT22;28834;48.720;9.208;2022-09-17T18:01:30;10.70;99.90
43225;DHT22;28834;48.720;9.208;2022-09-17T18:04:00;10.70;99.90
43225;DHT22;28834;48.720;9.208;2022-09-17T18:06:26;10.70;99.90
43225;DHT22;28834;48.720;9.208;2022-09-17T18:08:52;10.60;99.90
43225;DHT22;28834;48.720;9.208;2022-09-17T18:11:19;10.60;99.90
43225;DHT22;28834;48.720;9.208;2022-09-17T18:13:45;10.50;99.90
43225;DHT22;28834;48.720;9.208;2022-09-17T18:16:12;10.50;99.90
43225;DHT22;28834;48.720;9.208;2022-09-17T18:18:40;10.40;99.90
43225;DHT22;28834;48.720;9.208;2022-09-17T18:21:08;10.30;99.90
43225;DHT22;28834;48.720;9.208;2022-09-17T18:23:35;10.30;99.90
43225;DHT22;28834;48.720;9.208;2022-09-17T18:26:01;10.30;99.90
43225;DHT22;28834;48.720;9.208;2022-09-17T18:28:28;10.20;99.90
43225;DHT22;28834;48.720;9.208;2022-09-17T18:30:55;10.20;99.90
43225;DHT22;28834;48.720;9.208;2022-09-17T18:33:25;10.20;99.90
43225;DHT22;28834;48.720;9.208;2022-09-17T18:35:52;10.20;99.90
43225;DHT22;28834;48.720;9.208;2022-09-17T18:38:22;10.10;99.90
43225;DHT22;28834;48.720;9.208;2022-09-17T18:40:49;10.10;99.90
43225;DHT22;28834;48.720;9.208;2022-09-17T18:43:14;10.00;99.90
43225;DHT22;28834;48.720;9.208;2022-09-17T18:45:40;10.00;99.90
43225;DHT22;28834;48.720;9.208;2022-09-17T18:48:06;10.00;99.90
43225;DHT22;28834;48.720;9.208;2022-09-17T18:50:32;10.00;99.90
43225;DHT22;28834;48.720;9.208;2022-09-17T18:52:57;9.90;99.90
43225;DHT22;28834;48.720;9.208;2022-09-17T18:55:23;9.90;99.90
43225;DHT22;28834;48.720;9.208;2022-09-17T18:57:50;9.90;99.90
43225;DHT22;28834;48.720;9.208;2022-09-17T19:00:19;10.00;99.90
43225;DHT22;28834;48.720;9.208;2022-09-17T19:02:48;9.90;99.90
43225;DHT22;28834;48.720;9.208;2022-09-17T19:05:15;9.90;99.90
43225;DHT22;28834;48.720;9.208;2022-09-17T19:07:47;9.90;99.90
43225;DHT22;28834;48.720;9.208;2022-09-17T19:10:13;9.90;99.90
43225;DHT22;28834;48.720;9.208;2022-09-17T19:12:39;9.90;99.90
43225;DHT22;28834;48.720;9.208;2022-09-17T19:15:05;9.90;99.90
43225;DHT22;28834;48.720;9.208;2022-09-17T19:17:31;9.90;99.90
43225;DHT22;28834;48.720;9.208;2022-09-17T19:19:56;9.90;99.90
43225;DHT22;28834;48.720;9.208;2022-09-17T19:22:22;9.80;99.90
43225;DHT22;28834;48.720;9.208;2022-09-17T19:24:48;9.80;99.90
43225;DHT22;28834;48.720;9.208;2022-09-17T19:27:13;9.70;99.90
43225;DHT22;28834;48.720;9.208;2022-09-17T19:29:39;9.50;99.90
43225;DHT22;28834;48.720;9.208;2022-09-17T19:32:04;9.30;99.90